sensor_id;sensor_type;location;lat;lon;timestamp;pressure;altitude;pressure_sealevel;temperature;humidity
13869;BME280;7004;48.206;16.402;2023-03-16T00:02:18;100108.88;;;3.92;70.18
13869;BME280;7004;48.206;16.402;2023-03-16T00:04:45;100108.41;;;4.07;70.22
13869;BME280;7004;48.206;16.402;2023-03-16T00:07:14;100119.00;;;4.03;70.03
13869;BME280;7004;48.206;16.402;2023-03-16T00:09:40;100111.53;;;3.89;70.56
13869;BME280;7004;48.206;16.402;2023-03-16T00:12:13;100124.06;;;3.79;70.58
13869;BME280;7004;48.206;16.402;2023-03-16T00:14:46;100126.78;;;4.04;69.31
13869;BME280;7004;48.206;16.402;2023-03-16T00:17:16;100131.69;;;4.15;69.20
13869;BME280;7004;48.206;16.402;2023-03-16T00:19:52;100136.38;;;4.05;69.70
13869;BME280;7004;48.206;16.402;2023-03-16T00:22:25;100143.88;;;3.86;71.15
13869;BME280;7004;48.206;16.402;2023-03-16T00:24:52;100137.03;;;3.82;70.57
13869;BME280;7004;48.206;16.402;2023-03-16T00:27:19;100146.09;;;3.70;70.23
13869;BME280;7004;48.206;16.402;2023-03-16T00:29:49;100152.00;;;3.77;70.94
13869;BME280;7004;48.206;16.402;2023-03-16T00:32:27;100152.84;;;3.78;69.74
13869;BME280;7004;48.206;16.402;2023-03-16T00:34:53;100143.63;;;3.96;69.06
13869;BME280;7004;48.206;16.402;2023-03-16T00:37:21;100149.06;;;3.58;70.33
13869;BME280;7004;48.206;16.402;2023-03-16T00:39:49;100156.91;;;3.58;71.19
13869;BME280;7004;48.206;16.402;2023-03-16T00:42:17;100161.44;;;3.83;70.03
13869;BME280;7004;48.206;16.402;2023-03-16T00:44:44;100164.38;;;3.39;71.51
13869;BME280;7004;48.206;16.402;2023-03-16T00:47:12;100156.19;;;3.83;70.97
13869;BME280;7004;48.206;16.402;2023-03-16T00:49:41;100165.91;;;3.48;71.15
13869;BME280;7004;48.206;16.402;2023-03-16T00:52:10;100160.28;;;3.62;71.98
13869;BME280;7004;48.206;16.402;2023-03-16T00:54:42;100155.19;;;3.57;71.45
13869;BME280;7004;48.206;16.402;2023-03-16T00:57:12;100171.25;;;3.43;72.63
13869;BME280;7004;48.206;16.402;2023-03-16T00:59:39;100165.00;;;3.49;71.65
13869;BME280;7004;48.206;16.402;2023-03-16T01:02:07;100164.53;;;3.66;71.25
13869;BME280;7004;48.206;16.402;2023-03-16T01:04:33;100174.00;;;3.37;71.97
13869;BME280;7004;48.206;16.402;2023-03-16T01:07:03;100177.44;;;3.39;72.54
13869;BME280;7004;48.206;16.402;2023-03-16T01:09:29;100176.13;;;3.23;72.96
13869;BME280;7004;48.206;16.402;2023-03-16T01:11:56;100177.13;;;3.52;71.63
13869;BME280;7004;48.206;16.402;2023-03-16T01:14:22;100193.72;;;3.16;72.75
13869;BME280;7004;48.206;16.402;2023-03-16T01:16:49;100181.09;;;3.34;71.17
13869;BME280;7004;48.206;16.402;2023-03-16T01:19:16;100181.38;;;3.23;72.47
13869;BME280;7004;48.206;16.402;2023-03-16T01:21:42;100186.84;;;3.46;71.87
13869;BME280;7004;48.206;16.402;2023-03-16T01:24:09;100183.16;;;3.21;72.18
13869;BME280;7004;48.206;16.402;2023-03-16T01:26:36;100182.09;;;3.28;71.97
13869;BME280;7004;48.206;16.402;2023-03-16T01:29:02;100177.19;;;3.16;72.57
13869;BME280;7004;48.206;16.402;2023-03-16T01:31:28;100179.50;;;3.28;72.00
13869;BME280;7004;48.206;16.402;2023-03-16T01:33:55;100177.13;;;3.52;71.17
13869;BME280;7004;48.206;16.402;2023-03-16T01:36:21;100178.09;;;3.15;72.22
13869;BME280;7004;48.206;16.402;2023-03-16T01:38:47;100178.91;;;3.17;71.81
13869;BME280;7004;48.206;16.402;2023-03-16T01:41:14;100186.31;;;3.34;70.84
13869;BME280;7004;48.206;16.402;2023-03-16T01:43:41;100183.94;;;3.57;70.78
13869;BME280;7004;48.206;16.402;2023-03-16T01:46:22;100188.84;;;3.02;71.17
13869;BME280;7004;48.206;16.402;2023-03-16T01:51:45;100204.31;;;3.12;71.67
13869;BME280;7004;48.206;16.402;2023-03-16T01:54:31;100196.38;;;2.80;72.83
13869;BME280;7004;48.206;16.402;2023-03-16T01:57:13;100196.03;;;2.93;72.00
13869;BME280;7004;48.206;16.402;2023-03-16T02:00:07;100201.69;;;3.12;71.10
13869;BME280;7004;48.206;16.402;2023-03-16T02:02:47;100203.69;;;3.00;71.63
13869;BME280;7004;48.206;16.402;2023-03-16T02:05:31;100210.94;;;2.89;72.35
13869;BME280;7004;48.206;16.402;2023-03-16T02:07:59;100198.63;;;2.94;72.18
13869;BME280;7004;48.206;16.402;2023-03-16T02:10:28;100203.94;;;2.91;71.76
13869;BME280;7004;48.206;16.402;2023-03-16T02:12:54;100204.03;;;3.22;71.23
13869;BME280;7004;48.206;16.402;2023-03-16T02:15:22;100206.91;;;3.12;70.59
13869;BME280;7004;48.206;16.402;2023-03-16T02:17:50;100204.34;;;3.10;71.55
13869;BME280;7004;48.206;16.402;2023-03-16T02:22:58;100200.31;;;2.97;71.49
13869;BME280;7004;48.206;16.402;2023-03-16T02:25:49;100203.56;;;2.71;71.99
13869;BME280;7004;48.206;16.402;2023-03-16T02:28:31;100212.47;;;2.98;71.59
13869;BME280;7004;48.206;16.402;2023-03-16T02:30:59;100213.03;;;3.11;70.83
13869;BME280;7004;48.206;16.402;2023-03-16T02:33:27;100220.75;;;2.79;71.13
13869;BME280;7004;48.206;16.402;2023-03-16T02:35:54;100210.00;;;3.27;69.55
13869;BME280;7004;48.206;16.402;2023-03-16T02:38:20;100219.34;;;3.02;71.26
13869;BME280;7004;48.206;16.402;2023-03-16T02:41:00;100216.16;;;2.91;71.84
13869;BME280;7004;48.206;16.402;2023-03-16T02:43:35;100218.41;;;2.67;72.37
13869;BME280;7004;48.206;16.402;2023-03-16T02:46:03;100216.66;;;3.03;71.49
13869;BME280;7004;48.206;16.402;2023-03-16T02:48:43;100224.16;;;2.83;71.28
13869;BME280;7004;48.206;16.402;2023-03-16T02:51:11;100225.00;;;2.83;71.67
13869;BME280;7004;48.206;16.402;2023-03-16T02:53:38;100230.81;;;2.96;70.55
13869;BME280;7004;48.206;16.402;2023-03-16T02:56:04;100227.94;;;3.05;70.68
13869;BME280;7004;48.206;16.402;2023-03-16T02:58:33;100226.88;;;2.78;71.35
13869;BME280;7004;48.206;16.402;2023-03-16T03:00:59;100231.94;;;2.84;70.87
13869;BME280;7004;48.206;16.402;2023-03-16T03:03:26;100236.47;;;2.78;71.14
13869;BME280;7004;48.206;16.402;2023-03-16T03:05:52;100242.00;;;3.01;71.11
13869;BME280;7004;48.206;16.402;2023-03-16T03:08:18;100238.91;;;2.84;71.52
13869;BME280;7004;48.206;16.402;2023-03-16T03:10:49;100251.78;;;2.54;71.75
13869;BME280;7004;48.206;16.402;2023-03-16T03:13:16;100248.75;;;2.73;72.22
13869;BME280;7004;48.206;16.402;2023-03-16T03:15:43;100251.75;;;2.56;72.18
13869;BME280;7004;48.206;16.402;2023-03-16T03:18:09;100253.00;;;2.77;71.78
13869;BME280;7004;48.206;16.402;2023-03-16T03:20:36;100257.09;;;2.89;71.75
13869;BME280;7004;48.206;16.402;2023-03-16T03:23:03;100251.06;;;2.48;73.22
13869;BME280;7004;48.206;16.402;2023-03-16T03:25:30;100254.50;;;2.48;71.94
13869;BME280;7004;48.206;16.402;2023-03-16T03:28:01;100258.94;;;2.83;71.84
13869;BME280;7004;48.206;16.402;2023-03-16T03:30:27;100272.53;;;2.59;72.32
13869;BME280;7004;48.206;16.402;2023-03-16T03:32:54;100261.91;;;2.68;71.69
13869;BME280;7004;48.206;16.402;2023-03-16T03:35:21;100268.56;;;2.43;72.56
13869;BME280;7004;48.206;16.402;2023-03-16T03:37:47;100276.25;;;2.49;73.08
13869;BME280;7004;48.206;16.402;2023-03-16T03:40:15;100278.25;;;2.36;73.80
13869;BME280;7004;48.206;16.402;2023-03-16T03:42:42;100272.75;;;2.50;73.16
13869;BME280;7004;48.206;16.402;2023-03-16T03:45:10;100275.06;;;2.63;72.23
13869;BME280;7004;48.206;16.402;2023-03-16T03:47:39;100284.47;;;2.71;72.53
13869;BME280;7004;48.206;16.402;2023-03-16T03:50:07;100282.06;;;2.61;72.25
13869;BME280;7004;48.206;16.402;2023-03-16T03:52:34;100278.31;;;2.34;73.08
13869;BME280;7004;48.206;16.402;2023-03-16T03:55:00;100282.19;;;2.96;70.64
13869;BME280;7004;48.206;16.402;2023-03-16T03:57:26;100279.56;;;2.57;72.61
13869;BME280;7004;48.206;16.402;2023-03-16T03:59:52;100280.78;;;2.79;72.24
13869;BME280;7004;48.206;16.402;2023-03-16T04:02:19;100280.44;;;2.56;72.02
13869;BME280;7004;48.206;16.402;2023-03-16T04:04:45;100281.44;;;2.50;72.75
13869;BME280;7004;48.206;16.402;2023-03-16T04:07:11;100283.66;;;2.67;72.01
13869;BME280;7004;48.206;16.402;2023-03-16T04:09:37;100281.72;;;2.77;70.93
13869;BME280;7004;48.206;16.402;2023-03-16T04:12:05;100284.16;;;2.84;71.70
13869;BME280;7004;48.206;16.402;2023-03-16T04:14:31;100285.28;;;2.34;72.85
13869;BME280;7004;48.206;16.402;2023-03-16T04:16:59;100289.81;;;2.65;71.74
13869;BME280;7004;48.206;16.402;2023-03-16T04:19:25;100287.22;;;2.65;71.50
13869;BME280;7004;48.206;16.402;2023-03-16T04:21:52;100287.63;;;2.85;70.32
13869;BME280;7004;48.206;16.402;2023-03-16T04:24:18;100291.81;;;2.53;71.96
13869;BME280;7004;48.206;16.402;2023-03-16T04:26:44;100294.75;;;2.38;72.80
13869;BME280;7004;48.206;16.402;2023-03-16T04:29:15;100293.06;;;2.76;71.23
13869;BME280;7004;48.206;16.402;2023-03-16T04:31:44;100304.25;;;2.40;72.06
13869;BME280;7004;48.206;16.402;2023-03-16T04:34:11;100302.63;;;2.35;72.82
13869;BME280;7004;48.206;16.402;2023-03-16T04:36:38;100311.81;;;2.54;71.53
13869;BME280;7004;48.206;16.402;2023-03-16T04:39:05;100311.25;;;2.80;71.14
13869;BME280;7004;48.206;16.402;2023-03-16T04:41:32;100305.41;;;2.27;72.80
13869;BME280;7004;48.206;16.402;2023-03-16T04:43:58;100312.13;;;2.39;73.15
13869;BME280;7004;48.206;16.402;2023-03-16T04:46:26;100313.88;;;2.79;71.30
13869;BME280;7004;48.206;16.402;2023-03-16T04:48:53;100317.59;;;2.69;71.41
13869;BME280;7004;48.206;16.402;2023-03-16T04:51:19;100322.66;;;2.34;72.07
13869;BME280;7004;48.206;16.402;2023-03-16T04:53:46;100325.28;;;2.33;72.70
13869;BME280;7004;48.206;16.402;2023-03-16T04:56:12;100327.25;;;2.23;72.53
13869;BME280;7004;48.206;16.402;2023-03-16T04:58:49;100323.22;;;2.49;71.83
13869;BME280;7004;48.206;16.402;2023-03-16T05:01:16;100328.13;;;2.64;72.06
13869;BME280;7004;48.206;16.402;2023-03-16T05:03:44;100333.50;;;2.56;72.35
13869;BME280;7004;48.206;16.402;2023-03-16T05:06:11;100337.97;;;2.08;73.72
13869;BME280;7004;48.206;16.402;2023-03-16T05:08:37;100345.56;;;2.18;73.57
13869;BME280;7004;48.206;16.402;2023-03-16T05:11:03;100347.91;;;2.34;72.84
13869;BME280;7004;48.206;16.402;2023-03-16T05:13:30;100358.78;;;2.09;73.53
13869;BME280;7004;48.206;16.402;2023-03-16T05:15:56;100359.50;;;2.61;72.28
13869;BME280;7004;48.206;16.402;2023-03-16T05:18:22;100362.59;;;2.38;72.88
13869;BME280;7004;48.206;16.402;2023-03-16T05:20:53;100368.78;;;2.32;74.18
13869;BME280;7004;48.206;16.402;2023-03-16T05:23:21;100364.81;;;2.56;72.34
13869;BME280;7004;48.206;16.402;2023-03-16T05:25:49;100366.47;;;2.62;71.09
13869;BME280;7004;48.206;16.402;2023-03-16T05:28:16;100374.28;;;2.17;73.33
13869;BME280;7004;48.206;16.402;2023-03-16T05:30:42;100372.19;;;2.36;72.75
13869;BME280;7004;48.206;16.402;2023-03-16T05:33:09;100379.47;;;2.63;72.36
13869;BME280;7004;48.206;16.402;2023-03-16T05:35:36;100382.88;;;2.24;73.96
13869;BME280;7004;48.206;16.402;2023-03-16T05:38:03;100381.75;;;2.79;72.02
13869;BME280;7004;48.206;16.402;2023-03-16T05:40:29;100382.88;;;2.67;71.78
13869;BME280;7004;48.206;16.402;2023-03-16T05:42:57;100379.28;;;2.73;72.13
13869;BME280;7004;48.206;16.402;2023-03-16T05:45:25;100384.50;;;2.73;71.34
13869;BME280;7004;48.206;16.402;2023-03-16T05:47:52;100382.31;;;2.51;71.85
13869;BME280;7004;48.206;16.402;2023-03-16T05:50:18;100385.97;;;2.43;71.72
13869;BME280;7004;48.206;16.402;2023-03-16T05:52:45;100395.59;;;2.40;72.82
13869;BME280;7004;48.206;16.402;2023-03-16T05:55:14;100388.09;;;2.67;71.43
13869;BME280;7004;48.206;16.402;2023-03-16T05:57:40;100391.91;;;2.51;72.25
13869;BME280;7004;48.206;16.402;2023-03-16T06:00:12;100394.91;;;2.74;71.49
13869;BME280;7004;48.206;16.402;2023-03-16T06:02:49;100407.84;;;2.37;72.81
13869;BME280;7004;48.206;16.402;2023-03-16T06:05:20;100404.47;;;2.75;70.75
13869;BME280;7004;48.206;16.402;2023-03-16T06:07:51;100407.34;;;2.61;72.10
13869;BME280;7004;48.206;16.402;2023-03-16T06:10:18;100402.94;;;2.65;71.84
13869;BME280;7004;48.206;16.402;2023-03-16T06:12:44;100412.03;;;2.89;70.66
13869;BME280;7004;48.206;16.402;2023-03-16T06:15:11;100411.22;;;2.86;70.20
13869;BME280;7004;48.206;16.402;2023-03-16T06:17:38;100408.72;;;2.79;70.01
13869;BME280;7004;48.206;16.402;2023-03-16T06:20:07;100414.50;;;2.95;70.29
13869;BME280;7004;48.206;16.402;2023-03-16T06:22:40;100413.91;;;3.23;68.99
13869;BME280;7004;48.206;16.402;2023-03-16T06:25:09;100421.72;;;3.24;68.60
13869;BME280;7004;48.206;16.402;2023-03-16T06:27:37;100423.44;;;3.25;68.67
13869;BME280;7004;48.206;16.402;2023-03-16T06:30:06;100426.09;;;2.82;68.97
13869;BME280;7004;48.206;16.402;2023-03-16T06:32:34;100428.06;;;3.11;69.17
13869;BME280;7004;48.206;16.402;2023-03-16T06:35:01;100434.88;;;3.20;67.39
13869;BME280;7004;48.206;16.402;2023-03-16T06:37:30;100429.09;;;3.44;66.98
13869;BME280;7004;48.206;16.402;2023-03-16T06:39:57;100435.22;;;3.43;66.96
13869;BME280;7004;48.206;16.402;2023-03-16T06:42:23;100443.19;;;3.37;66.38
13869;BME280;7004;48.206;16.402;2023-03-16T06:44:49;100441.81;;;3.60;65.46
13869;BME280;7004;48.206;16.402;2023-03-16T06:47:15;100444.41;;;3.61;65.47
13869;BME280;7004;48.206;16.402;2023-03-16T06:49:42;100443.66;;;3.55;65.87
13869;BME280;7004;48.206;16.402;2023-03-16T06:52:08;100449.34;;;3.74;64.28
13869;BME280;7004;48.206;16.402;2023-03-16T06:54:40;100455.88;;;3.56;65.24
13869;BME280;7004;48.206;16.402;2023-03-16T06:57:06;100455.56;;;3.68;65.16
13869;BME280;7004;48.206;16.402;2023-03-16T06:59:32;100464.28;;;4.04;63.44
13869;BME280;7004;48.206;16.402;2023-03-16T07:01:59;100452.28;;;3.96;63.66
13869;BME280;7004;48.206;16.402;2023-03-16T07:04:26;100456.03;;;4.20;62.59
13869;BME280;7004;48.206;16.402;2023-03-16T07:06:52;100462.06;;;4.87;59.32
13869;BME280;7004;48.206;16.402;2023-03-16T07:09:18;100458.78;;;4.49;60.90
13869;BME280;7004;48.206;16.402;2023-03-16T07:11:45;100464.56;;;4.60;59.77
13869;BME280;7004;48.206;16.402;2023-03-16T07:14:11;100455.56;;;6.15;54.85
13869;BME280;7004;48.206;16.402;2023-03-16T07:16:37;100449.03;;;6.76;54.55
13869;BME280;7004;48.206;16.402;2023-03-16T07:19:04;100453.72;;;5.90;55.52
13869;BME280;7004;48.206;16.402;2023-03-16T07:21:30;100460.28;;;6.05;54.81
13869;BME280;7004;48.206;16.402;2023-03-16T07:24:05;100450.94;;;6.96;51.38
13869;BME280;7004;48.206;16.402;2023-03-16T07:26:31;100459.22;;;7.33;51.89
13869;BME280;7004;48.206;16.402;2023-03-16T07:29:00;100456.38;;;7.15;51.10
13869;BME280;7004;48.206;16.402;2023-03-16T07:31:27;100450.81;;;6.99;52.04
13869;BME280;7004;48.206;16.402;2023-03-16T07:33:53;100452.97;;;8.01;49.03
13869;BME280;7004;48.206;16.402;2023-03-16T07:36:19;100449.88;;;7.92;48.94
13869;BME280;7004;48.206;16.402;2023-03-16T07:38:45;100452.09;;;7.13;49.55
13869;BME280;7004;48.206;16.402;2023-03-16T07:41:11;100449.81;;;7.49;47.56
13869;BME280;7004;48.206;16.402;2023-03-16T07:43:37;100450.03;;;8.09;48.93
13869;BME280;7004;48.206;16.402;2023-03-16T07:46:03;100454.94;;;7.52;49.24
13869;BME280;7004;48.206;16.402;2023-03-16T07:48:30;100463.84;;;7.03;48.65
13869;BME280;7004;48.206;16.402;2023-03-16T07:50:57;100451.53;;;8.78;46.15
13869;BME280;7004;48.206;16.402;2023-03-16T07:53:23;100454.56;;;8.68;45.18
13869;BME280;7004;48.206;16.402;2023-03-16T07:55:49;100453.84;;;8.02;46.69
13869;BME280;7004;48.206;16.402;2023-03-16T07:58:15;100453.19;;;7.97;46.04
13869;BME280;7004;48.206;16.402;2023-03-16T08:00:41;100459.31;;;7.75;47.15
13869;BME280;7004;48.206;16.402;2023-03-16T08:03:07;100447.34;;;9.68;44.59
13869;BME280;7004;48.206;16.402;2023-03-16T08:05:34;100454.09;;;8.38;45.20
13869;BME280;7004;48.206;16.402;2023-03-16T08:08:00;100442.50;;;9.95;42.27
13869;BME280;7004;48.206;16.402;2023-03-16T08:10:27;100454.78;;;9.22;44.66
13869;BME280;7004;48.206;16.402;2023-03-16T08:12:58;100456.63;;;9.20;43.35
13869;BME280;7004;48.206;16.402;2023-03-16T08:15:25;100465.72;;;8.12;44.05
13869;BME280;7004;48.206;16.402;2023-03-16T08:17:51;100468.16;;;8.17;45.89
13869;BME280;7004;48.206;16.402;2023-03-16T08:20:17;100465.09;;;9.08;43.89
13869;BME280;7004;48.206;16.402;2023-03-16T08:22:43;100460.00;;;11.66;38.80
13869;BME280;7004;48.206;16.402;2023-03-16T08:25:11;100471.25;;;10.01;41.06
13869;BME280;7004;48.206;16.402;2023-03-16T08:27:38;100470.19;;;10.58;41.23
13869;BME280;7004;48.206;16.402;2023-03-16T08:30:06;100469.03;;;9.56;39.64
13869;BME280;7004;48.206;16.402;2023-03-16T08:32:36;100478.94;;;9.13;41.09
13869;BME280;7004;48.206;16.402;2023-03-16T08:35:07;100477.53;;;9.06;42.13
13869;BME280;7004;48.206;16.402;2023-03-16T08:37:35;100464.91;;;11.08;39.12
13869;BME280;7004;48.206;16.402;2023-03-16T08:40:01;100468.63;;;10.71;39.77
13869;BME280;7004;48.206;16.402;2023-03-16T08:42:29;100473.16;;;10.34;40.22
13869;BME280;7004;48.206;16.402;2023-03-16T08:44:55;100475.13;;;10.48;38.47
13869;BME280;7004;48.206;16.402;2023-03-16T08:47:22;100480.66;;;8.95;38.97
13869;BME280;7004;48.206;16.402;2023-03-16T08:49:49;100475.81;;;9.43;39.98
13869;BME280;7004;48.206;16.402;2023-03-16T08:52:16;100475.47;;;9.50;38.94
13869;BME280;7004;48.206;16.402;2023-03-16T08:54:42;100490.19;;;8.98;38.92
13869;BME280;7004;48.206;16.402;2023-03-16T08:57:09;100486.59;;;9.38;38.71
13869;BME280;7004;48.206;16.402;2023-03-16T08:59:35;100487.00;;;9.10;37.51
13869;BME280;7004;48.206;16.402;2023-03-16T09:02:02;100484.06;;;9.92;36.63
13869;BME280;7004;48.206;16.402;2023-03-16T09:04:29;100496.00;;;8.65;37.73
13869;BME280;7004;48.206;16.402;2023-03-16T09:06:56;100483.75;;;9.98;35.11
13869;BME280;7004;48.206;16.402;2023-03-16T09:09:22;100477.00;;;10.46;35.82
13869;BME280;7004;48.206;16.402;2023-03-16T09:11:48;100493.03;;;10.24;35.55
13869;BME280;7004;48.206;16.402;2023-03-16T09:14:15;100487.31;;;10.14;34.93
13869;BME280;7004;48.206;16.402;2023-03-16T09:16:41;100479.09;;;9.67;36.95
13869;BME280;7004;48.206;16.402;2023-03-16T09:19:07;100495.53;;;9.91;36.85
13869;BME280;7004;48.206;16.402;2023-03-16T09:21:33;100484.88;;;10.63;35.49
13869;BME280;7004;48.206;16.402;2023-03-16T09:24:03;100480.75;;;11.57;33.32
13869;BME280;7004;48.206;16.402;2023-03-16T09:26:29;100491.00;;;9.18;34.24
13869;BME280;7004;48.206;16.402;2023-03-16T09:28:55;100480.97;;;10.88;33.98
13869;BME280;7004;48.206;16.402;2023-03-16T09:31:21;100483.13;;;10.46;34.18
13869;BME280;7004;48.206;16.402;2023-03-16T09:33:47;100476.03;;;11.78;31.34
13869;BME280;7004;48.206;16.402;2023-03-16T09:36:14;100488.69;;;11.42;31.08
13869;BME280;7004;48.206;16.402;2023-03-16T09:38:42;100492.88;;;11.62;32.18
13869;BME280;7004;48.206;16.402;2023-03-16T09:47:07;100479.09;;;12.18;30.80
13869;BME280;7004;48.206;16.402;2023-03-16T09:49:47;100473.88;;;11.85;30.49
13869;BME280;7004;48.206;16.402;2023-03-16T09:52:52;100479.19;;;10.88;31.32
13869;BME280;7004;48.206;16.402;2023-03-16T09:55:30;100480.47;;;11.46;30.88
13869;BME280;7004;48.206;16.402;2023-03-16T09:57:59;100474.56;;;12.20;31.09
13869;BME280;7004;48.206;16.402;2023-03-16T10:00:35;100479.09;;;12.49;36.20
13869;BME280;7004;48.206;16.402;2023-03-16T10:06:12;100486.28;;;10.88;32.29
13869;BME280;7004;48.206;16.402;2023-03-16T10:08:44;100475.94;;;11.80;31.88
13869;BME280;7004;48.206;16.402;2023-03-16T10:11:30;100463.66;;;13.70;32.00
13869;BME280;7004;48.206;16.402;2023-03-16T10:14:24;100476.34;;;12.50;32.67
13869;BME280;7004;48.206;16.402;2023-03-16T10:17:25;100484.91;;;10.28;34.11
13869;BME280;7004;48.206;16.402;2023-03-16T10:19:58;100490.44;;;10.05;32.89
13869;BME280;7004;48.206;16.402;2023-03-16T10:22:30;100486.47;;;11.01;33.03
13869;BME280;7004;48.206;16.402;2023-03-16T10:25:41;100481.63;;;10.76;34.19
13869;BME280;7004;48.206;16.402;2023-03-16T10:28:21;100481.31;;;10.30;34.82
13869;BME280;7004;48.206;16.402;2023-03-16T10:30:53;100479.13;;;11.39;34.11
13869;BME280;7004;48.206;16.402;2023-03-16T10:33:27;100487.56;;;12.39;31.46
13869;BME280;7004;48.206;16.402;2023-03-16T10:38:38;100478.63;;;12.26;33.75
13869;BME280;7004;48.206;16.402;2023-03-16T10:43:45;100478.34;;;10.88;32.30
13869;BME280;7004;48.206;16.402;2023-03-16T10:46:12;100472.03;;;12.33;31.85
13869;BME280;7004;48.206;16.402;2023-03-16T10:48:39;100475.56;;;13.21;32.09
13869;BME280;7004;48.206;16.402;2023-03-16T10:51:13;100469.97;;;13.40;29.97
13869;BME280;7004;48.206;16.402;2023-03-16T10:53:42;100464.91;;;12.64;30.19
13869;BME280;7004;48.206;16.402;2023-03-16T10:56:22;100473.44;;;12.24;30.77
13869;BME280;7004;48.206;16.402;2023-03-16T10:58:50;100460.41;;;12.36;30.46
13869;BME280;7004;48.206;16.402;2023-03-16T11:01:28;100473.22;;;11.97;29.32
13869;BME280;7004;48.206;16.402;2023-03-16T11:03:56;100475.06;;;11.00;31.83
13869;BME280;7004;48.206;16.402;2023-03-16T11:06:29;100471.84;;;10.60;30.95
13869;BME280;7004;48.206;16.402;2023-03-16T11:09:24;100469.91;;;10.64;31.70
13869;BME280;7004;48.206;16.402;2023-03-16T11:11:52;100464.81;;;12.21;30.69
13869;BME280;7004;48.206;16.402;2023-03-16T11:14:24;100463.06;;;11.42;32.99
13869;BME280;7004;48.206;16.402;2023-03-16T11:17:15;100454.22;;;13.08;29.71
13869;BME280;7004;48.206;16.402;2023-03-16T11:19:57;100456.44;;;12.13;28.98
13869;BME280;7004;48.206;16.402;2023-03-16T11:22:26;100453.50;;;11.87;29.22
13869;BME280;7004;48.206;16.402;2023-03-16T11:25:13;100451.56;;;12.94;28.43
13869;BME280;7004;48.206;16.402;2023-03-16T11:33:11;100455.63;;;10.84;31.53
13869;BME280;7004;48.206;16.402;2023-03-16T11:41:08;100437.75;;;13.03;29.51
13869;BME280;7004;48.206;16.402;2023-03-16T11:43:55;100440.09;;;12.94;28.52
13869;BME280;7004;48.206;16.402;2023-03-16T11:46:47;100435.94;;;13.04;28.87
13869;BME280;7004;48.206;16.402;2023-03-16T11:49:46;100431.75;;;12.12;29.82
13869;BME280;7004;48.206;16.402;2023-03-16T11:56:01;100434.53;;;10.49;29.28
13869;BME280;7004;48.206;16.402;2023-03-16T12:01:34;100425.38;;;11.69;28.71
13869;BME280;7004;48.206;16.402;2023-03-16T12:04:43;100430.56;;;10.91;29.25
13869;BME280;7004;48.206;16.402;2023-03-16T12:15:48;100395.63;;;14.07;26.43
13869;BME280;7004;48.206;16.402;2023-03-16T12:18:29;100394.63;;;12.85;26.95
13869;BME280;7004;48.206;16.402;2023-03-16T12:21:37;100397.41;;;13.67;27.43
13869;BME280;7004;48.206;16.402;2023-03-16T12:24:09;100391.78;;;12.74;28.37
13869;BME280;7004;48.206;16.402;2023-03-16T12:26:39;100375.66;;;13.06;28.40
13869;BME280;7004;48.206;16.402;2023-03-16T12:32:12;100387.78;;;11.94;28.12
13869;BME280;7004;48.206;16.402;2023-03-16T12:35:41;100384.00;;;11.98;27.72
13869;BME280;7004;48.206;16.402;2023-03-16T12:44:13;100374.38;;;14.07;25.24
13869;BME280;7004;48.206;16.402;2023-03-16T12:49:35;100376.69;;;11.71;27.40
13869;BME280;7004;48.206;16.402;2023-03-16T12:52:09;100366.16;;;13.16;25.15
13869;BME280;7004;48.206;16.402;2023-03-16T12:57:41;100371.09;;;12.22;25.64
13869;BME280;7004;48.206;16.402;2023-03-16T13:00:10;100368.59;;;12.63;25.19
13869;BME280;7004;48.206;16.402;2023-03-16T13:02:52;100368.47;;;12.65;25.33
13869;BME280;7004;48.206;16.402;2023-03-16T13:05:35;100355.16;;;13.76;24.84
13869;BME280;7004;48.206;16.402;2023-03-16T13:08:09;100351.38;;;13.26;26.41
13869;BME280;7004;48.206;16.402;2023-03-16T13:10:37;100360.84;;;12.01;27.78
13869;BME280;7004;48.206;16.402;2023-03-16T13:13:14;100361.19;;;11.49;28.56
13869;BME280;7004;48.206;16.402;2023-03-16T13:15:42;100348.66;;;12.42;27.44
13869;BME280;7004;48.206;16.402;2023-03-16T13:20:56;100355.94;;;12.81;26.46
13869;BME280;7004;48.206;16.402;2023-03-16T13:23:27;100345.91;;;13.42;25.74
13869;BME280;7004;48.206;16.402;2023-03-16T13:26:11;100338.34;;;13.63;25.49
13869;BME280;7004;48.206;16.402;2023-03-16T13:28:41;100336.44;;;15.06;24.34
13869;BME280;7004;48.206;16.402;2023-03-16T13:31:39;100337.84;;;13.02;25.42
13869;BME280;7004;48.206;16.402;2023-03-16T13:34:19;100343.25;;;12.86;26.01
13869;BME280;7004;48.206;16.402;2023-03-16T13:36:45;100353.09;;;12.13;26.29
13869;BME280;7004;48.206;16.402;2023-03-16T13:39:18;100350.13;;;12.03;26.10
13869;BME280;7004;48.206;16.402;2023-03-16T13:44:57;100338.94;;;11.06;27.03
13869;BME280;7004;48.206;16.402;2023-03-16T13:47:27;100344.91;;;11.71;26.85
13869;BME280;7004;48.206;16.402;2023-03-16T13:49:58;100333.16;;;12.36;26.30
13869;BME280;7004;48.206;16.402;2023-03-16T13:52:33;100330.03;;;13.14;25.90
13869;BME280;7004;48.206;16.402;2023-03-16T13:55:09;100330.50;;;13.74;25.74
13869;BME280;7004;48.206;16.402;2023-03-16T13:57:41;100330.66;;;13.98;26.07
13869;BME280;7004;48.206;16.402;2023-03-16T14:00:23;100326.53;;;13.54;26.26
13869;BME280;7004;48.206;16.402;2023-03-16T14:02:54;100337.06;;;11.24;27.09
13869;BME280;7004;48.206;16.402;2023-03-16T14:05:27;100339.88;;;11.36;26.98
13869;BME280;7004;48.206;16.402;2023-03-16T14:07:56;100336.03;;;11.10;26.18
13869;BME280;7004;48.206;16.402;2023-03-16T14:10:33;100335.81;;;12.36;25.59
13869;BME280;7004;48.206;16.402;2023-03-16T14:15:56;100332.09;;;11.18;26.59
13869;BME280;7004;48.206;16.402;2023-03-16T14:18:35;100333.28;;;11.74;27.21
13869;BME280;7004;48.206;16.402;2023-03-16T14:21:30;100327.94;;;10.82;27.91
13869;BME280;7004;48.206;16.402;2023-03-16T14:24:05;100333.53;;;10.91;28.71
13869;BME280;7004;48.206;16.402;2023-03-16T14:26:44;100323.06;;;10.74;28.56